createdAt,value
2023-05-25T00:00:53.510Z,41.22
2023-05-25T00:02:05.015Z,43.05
2023-05-25T00:03:08.629Z,43.25
2023-05-25T00:04:11.095Z,42.22
2023-05-25T00:05:14.437Z,40.83
2023-05-25T00:06:18.375Z,39.80
2023-05-25T00:07:21.939Z,42.30
2023-05-25T00:08:24.127Z,38.38
2023-05-25T00:09:26.615Z,40.35
2023-05-25T00:10:29.438Z,36.97
2023-05-25T00:11:31.702Z,35.65
2023-05-25T00:12:34.492Z,39.35
2023-05-25T00:13:36.729Z,37.33
2023-05-25T00:14:38.876Z,38.15
2023-05-25T00:15:42.019Z,33.00
2023-05-25T00:16:44.733Z,32.30
2023-05-25T00:17:49.088Z,34.80
2023-05-25T00:18:53.213Z,35.13
2023-05-25T00:19:59.538Z,34.63
2023-05-25T00:21:05.904Z,35.35
2023-05-25T00:22:08.170Z,36.30
2023-05-25T00:23:11.950Z,33.47
2023-05-25T00:24:14.438Z,38.20
2023-05-25T00:25:16.693Z,33.22
2023-05-25T00:26:18.874Z,40.40
2023-05-25T00:27:21.335Z,32.65
2023-05-25T00:28:23.530Z,33.65
2023-05-25T00:29:26.240Z,28.08
2023-05-25T00:30:28.408Z,26.65
2023-05-25T00:31:32.974Z,30.25
2023-05-25T00:32:35.562Z,28.73
2023-05-25T00:33:37.715Z,34.63
2023-05-25T00:34:39.845Z,29.05
2023-05-25T00:35:43.365Z,30.77
2023-05-25T00:36:48.841Z,29.35
2023-05-25T00:37:51.891Z,29.25
2023-05-25T00:38:55.546Z,29.02
2023-05-25T00:39:58.008Z,28.30
2023-05-25T00:41:00.576Z,30.23
2023-05-25T00:42:03.418Z,28.48
2023-05-25T00:43:06.698Z,33.75
2023-05-25T00:44:09.166Z,27.35
2023-05-25T00:45:11.959Z,29.40
2023-05-25T00:46:15.269Z,40.85
2023-05-25T00:47:18.856Z,35.53
2023-05-25T00:48:21.339Z,33.10
2023-05-25T00:49:23.619Z,39.08
2023-05-25T00:50:38.884Z,31.30
2023-05-25T00:51:41.815Z,27.23
2023-05-25T00:52:44.554Z,26.67
2023-05-25T00:53:47.361Z,30.85
2023-05-25T00:54:54.158Z,31.65
2023-05-25T00:56:02.999Z,25.20
2023-05-25T00:57:07.935Z,26.17
2023-05-25T00:58:11.478Z,30.38
2023-05-25T00:59:20.542Z,24.63
2023-05-25T01:00:23.873Z,26.08
2023-05-25T01:01:27.351Z,29.17
2023-05-25T01:02:31.120Z,30.17
2023-05-25T01:03:38.215Z,29.75
2023-05-25T01:04:45.438Z,28.75
2023-05-25T01:05:49.062Z,29.23
2023-05-25T01:06:53.567Z,27.52
2023-05-25T01:07:57.330Z,29.05
2023-05-25T01:09:04.160Z,29.70
2023-05-25T01:10:10.996Z,33.35
2023-05-25T01:11:16.449Z,29.27
2023-05-25T01:12:19.242Z,29.77
2023-05-25T01:13:21.718Z,34.00
2023-05-25T01:14:25.141Z,29.67
2023-05-25T01:15:27.806Z,29.33
2023-05-25T01:16:30.834Z,29.67
2023-05-25T01:17:33.253Z,35.90
2023-05-25T01:18:36.107Z,30.50
2023-05-25T01:19:41.187Z,32.67
2023-05-25T01:21:00.264Z,36.50
2023-05-25T01:22:06.518Z,36.22
2023-05-25T01:23:14.009Z,31.55
2023-05-25T01:24:23.721Z,31.48
2023-05-25T01:25:34.342Z,30.02
2023-05-25T01:26:48.826Z,28.02
2023-05-25T01:27:54.726Z,30.70
2023-05-25T01:28:58.571Z,32.13
2023-05-25T01:30:02.958Z,26.15
2023-05-25T01:31:06.689Z,34.22
2023-05-25T01:33:13.764Z,31.00
2023-05-25T01:34:17.055Z,28.35
2023-05-25T01:35:20.658Z,26.48
2023-05-25T01:36:24.272Z,24.98
2023-05-25T01:37:28.151Z,29.30
2023-05-25T01:38:30.760Z,28.85
2023-05-25T01:39:33.255Z,25.27
2023-05-25T01:40:35.720Z,25.67
2023-05-25T01:41:37.926Z,25.27
2023-05-25T01:42:40.083Z,27.08
2023-05-25T01:43:42.620Z,27.40
2023-05-25T01:44:45.737Z,31.15
2023-05-25T01:45:48.357Z,23.83
2023-05-25T01:46:58.004Z,23.38
2023-05-25T01:48:06.810Z,24.05
2023-05-25T01:49:17.283Z,26.02
2023-05-25T01:50:24.436Z,22.70
2023-05-25T01:51:36.809Z,24.08
2023-05-25T01:52:45.470Z,23.05
2023-05-25T01:53:53.718Z,21.55
2023-05-25T01:55:05.452Z,25.08
2023-05-25T01:56:11.645Z,25.17
2023-05-25T01:57:18.017Z,28.30
2023-05-25T01:58:21.018Z,24.10
2023-05-25T01:59:25.004Z,25.80
2023-05-25T02:00:31.452Z,25.38
2023-05-25T02:01:36.577Z,21.38
2023-05-25T02:02:41.116Z,18.85
2023-05-25T02:03:44.967Z,26.65
2023-05-25T02:04:48.069Z,20.90
2023-05-25T02:05:50.613Z,25.30
2023-05-25T02:06:54.211Z,26.63
2023-05-25T02:07:56.421Z,25.23
2023-05-25T02:08:58.657Z,24.63
2023-05-25T02:10:00.987Z,20.58
2023-05-25T02:11:03.692Z,25.20
2023-05-25T02:12:06.596Z,25.52
2023-05-25T02:13:10.057Z,22.58
2023-05-25T02:14:12.231Z,28.90
2023-05-25T02:15:15.709Z,23.23
2023-05-25T02:16:17.904Z,20.13
2023-05-25T02:17:20.407Z,23.95
2023-05-25T02:18:22.674Z,27.15
2023-05-25T02:19:24.812Z,30.00
2023-05-25T02:20:27.111Z,25.70
2023-05-25T02:21:29.456Z,20.27
2023-05-25T02:22:33.586Z,24.25
2023-05-25T02:23:35.778Z,25.52
2023-05-25T02:24:38.213Z,22.30
2023-05-25T02:25:42.926Z,26.92
2023-05-25T02:26:45.522Z,25.80
2023-05-25T02:27:47.749Z,22.85
2023-05-25T02:28:51.872Z,23.02
2023-05-25T02:29:54.079Z,19.25
2023-05-25T02:30:56.807Z,27.00
2023-05-25T02:31:59.246Z,21.92
2023-05-25T02:33:02.570Z,22.10
2023-05-25T02:34:04.823Z,26.50
2023-05-25T02:35:08.813Z,23.00
2023-05-25T02:36:11.072Z,24.58
2023-05-25T02:37:13.260Z,28.67
2023-05-25T02:38:16.912Z,27.80
2023-05-25T02:39:19.118Z,27.05
2023-05-25T02:40:21.317Z,25.85
2023-05-25T02:41:24.429Z,22.88
2023-05-25T02:42:26.801Z,23.23
2023-05-25T02:43:28.987Z,23.55
2023-05-25T02:44:32.662Z,25.85
2023-05-25T02:45:34.964Z,23.08
2023-05-25T02:46:37.199Z,30.75
2023-05-25T02:47:39.430Z,26.05
2023-05-25T02:48:43.502Z,20.42
2023-05-25T02:49:46.149Z,19.73
2023-05-25T02:50:48.323Z,23.50
2023-05-25T02:51:50.585Z,22.80
2023-05-25T02:52:52.772Z,25.38
2023-05-25T02:53:56.693Z,25.13
2023-05-25T02:54:58.995Z,25.73
2023-05-25T02:56:02.504Z,21.90
2023-05-25T02:57:05.236Z,24.25
2023-05-25T02:58:07.921Z,22.35
2023-05-25T02:59:10.075Z,22.42
2023-05-25T03:00:13.275Z,27.63
2023-05-25T03:01:19.338Z,22.15
2023-05-25T03:02:25.654Z,19.48
2023-05-25T03:03:28.265Z,15.85
2023-05-25T03:04:33.308Z,23.67
2023-05-25T03:05:36.097Z,19.63
2023-05-25T03:06:38.245Z,24.52
2023-05-25T03:07:41.147Z,24.50
2023-05-25T03:08:43.344Z,25.65
2023-05-25T03:09:47.149Z,25.65
2023-05-25T03:10:49.343Z,23.83
2023-05-25T03:11:51.589Z,21.55
2023-05-25T03:12:53.820Z,20.35
2023-05-25T03:13:56.321Z,24.52
2023-05-25T03:14:58.523Z,24.13
2023-05-25T03:16:00.938Z,23.08
2023-05-25T03:17:03.277Z,18.05
2023-05-25T03:18:05.974Z,24.75
2023-05-25T03:19:09.040Z,19.98
2023-05-25T03:20:12.173Z,27.80
2023-05-25T03:21:14.367Z,24.17
2023-05-25T03:22:16.565Z,21.52
2023-05-25T03:23:18.769Z,22.17
2023-05-25T03:24:21.026Z,23.60
2023-05-25T03:25:24.733Z,26.65
2023-05-25T03:26:26.850Z,25.00
2023-05-25T03:27:28.937Z,23.90
2023-05-25T03:28:31.120Z,27.02
2023-05-25T03:29:33.317Z,22.23
2023-05-25T03:30:35.538Z,22.48
2023-05-25T03:31:37.795Z,19.90
2023-05-25T03:32:39.993Z,25.85
2023-05-25T03:33:42.175Z,23.65
2023-05-25T03:34:45.100Z,23.20
2023-05-25T03:35:47.253Z,30.13
2023-05-25T03:36:49.403Z,22.27
2023-05-25T03:37:51.793Z,21.13
2023-05-25T03:38:54.659Z,25.58
2023-05-25T03:39:56.957Z,24.17
2023-05-25T03:41:00.512Z,23.95
2023-05-25T03:42:03.548Z,22.20
2023-05-25T03:43:05.711Z,22.38
2023-05-25T03:44:07.880Z,21.45
2023-05-25T03:45:10.878Z,24.75
2023-05-25T03:46:13.037Z,18.45
2023-05-25T03:47:15.248Z,21.63
2023-05-25T03:48:17.380Z,20.83
2023-05-25T03:49:19.541Z,22.20
2023-05-25T03:50:21.877Z,22.83
2023-05-25T03:51:24.099Z,23.92
2023-05-25T03:52:26.229Z,21.60
2023-05-25T03:53:28.361Z,26.25
2023-05-25T03:54:30.750Z,19.60
2023-05-25T03:55:32.900Z,20.15
2023-05-25T03:56:36.461Z,29.08
2023-05-25T03:57:39.047Z,23.73
2023-05-25T03:58:41.429Z,23.95
2023-05-25T03:59:43.527Z,29.58
2023-05-25T04:00:45.978Z,22.63
2023-05-25T04:01:48.118Z,22.83
2023-05-25T04:02:50.460Z,21.23
2023-05-25T04:03:53.310Z,31.48
2023-05-25T04:04:57.130Z,25.85
2023-05-25T04:06:00.848Z,25.48
2023-05-25T04:07:02.985Z,26.02
2023-05-25T04:08:05.361Z,24.00
2023-05-25T04:09:07.777Z,25.15
2023-05-25T04:10:11.127Z,29.60
2023-05-25T04:11:13.502Z,20.77
2023-05-25T04:12:17.232Z,24.52
2023-05-25T04:13:19.366Z,22.08
2023-05-25T04:14:21.643Z,24.42
2023-05-25T04:15:23.781Z,26.48
2023-05-25T04:16:26.598Z,29.00
2023-05-25T04:17:28.836Z,26.65
2023-05-25T04:18:30.995Z,30.17
2023-05-25T04:19:33.135Z,24.75
2023-05-25T04:20:35.545Z,29.52
2023-05-25T04:21:37.763Z,25.38
2023-05-25T04:22:39.979Z,31.77
2023-05-25T04:23:43.182Z,26.55
2023-05-25T04:24:45.475Z,25.02
2023-05-25T04:25:47.677Z,27.58
2023-05-25T04:26:50.384Z,26.08
2023-05-25T04:27:56.733Z,30.38
2023-05-25T04:28:59.274Z,27.40
2023-05-25T04:30:01.659Z,25.25
2023-05-25T04:31:05.572Z,29.02
2023-05-25T04:32:09.744Z,23.13
2023-05-25T04:33:12.243Z,24.67
2023-05-25T04:34:17.334Z,21.27
2023-05-25T04:35:21.369Z,30.15
2023-05-25T04:36:25.126Z,23.85
2023-05-25T04:37:27.719Z,24.88
2023-05-25T04:38:30.833Z,21.25
2023-05-25T04:39:33.131Z,17.95
2023-05-25T04:40:35.679Z,20.30
2023-05-25T04:41:37.878Z,22.48
2023-05-25T04:42:40.683Z,21.75
2023-05-25T04:44:04.624Z,21.70
2023-05-25T04:45:17.659Z,25.08
2023-05-25T04:46:19.991Z,24.67
2023-05-25T04:47:22.334Z,16.02
2023-05-25T04:48:24.850Z,14.32
2023-05-25T04:49:27.156Z,25.38
2023-05-25T04:50:29.535Z,18.15
2023-05-25T04:51:32.681Z,19.15
2023-05-25T04:52:35.449Z,16.48
2023-05-25T04:53:37.646Z,17.60
2023-05-25T04:54:40.234Z,20.05
2023-05-25T04:55:42.670Z,16.77
2023-05-25T04:56:45.300Z,14.85
2023-05-25T04:57:47.703Z,22.10
2023-05-25T04:58:52.018Z,24.70
2023-05-25T04:59:54.268Z,20.02
2023-05-25T05:00:56.732Z,20.08
2023-05-25T05:01:59.052Z,18.10
2023-05-25T05:03:01.382Z,25.13
2023-05-25T05:04:03.837Z,17.67
2023-05-25T05:05:06.725Z,22.40
2023-05-25T05:06:10.859Z,17.70
2023-05-25T05:07:12.986Z,19.52
2023-05-25T05:08:15.152Z,24.50
2023-05-25T05:09:17.656Z,15.88
2023-05-25T05:10:19.908Z,18.10
2023-05-25T05:11:23.623Z,13.65
2023-05-25T05:12:25.800Z,17.55
2023-05-25T05:13:28.037Z,17.73
2023-05-25T05:14:31.643Z,20.05
2023-05-25T05:15:33.865Z,19.98
2023-05-25T05:16:37.629Z,21.45
2023-05-25T05:17:39.975Z,16.60
2023-05-25T05:18:42.201Z,17.27
2023-05-25T05:19:44.426Z,19.30
2023-05-25T05:20:46.822Z,18.75
2023-05-25T05:21:49.164Z,19.42
2023-05-25T05:22:53.503Z,14.35
2023-05-25T05:23:56.766Z,20.35
2023-05-25T05:24:59.359Z,10.13
2023-05-25T05:26:01.592Z,12.60
2023-05-25T05:27:04.920Z,12.77
2023-05-25T05:28:08.101Z,13.00
2023-05-25T05:29:10.802Z,8.32
2023-05-25T05:30:14.821Z,7.07
2023-05-25T05:31:18.592Z,9.40
2023-05-25T05:32:20.952Z,7.20
2023-05-25T05:33:26.447Z,6.90
2023-05-25T05:34:28.710Z,10.93
2023-05-25T05:35:31.453Z,12.88
2023-05-25T05:36:42.055Z,12.65
2023-05-25T05:37:51.160Z,13.65
2023-05-25T05:38:53.405Z,15.25
2023-05-25T05:39:56.389Z,14.18
2023-05-25T05:40:58.643Z,16.67
2023-05-25T05:42:01.508Z,11.82
2023-05-25T05:43:03.692Z,10.77
2023-05-25T05:44:05.923Z,16.83
2023-05-25T05:45:08.748Z,10.48
2023-05-25T05:46:12.387Z,13.95
2023-05-25T05:47:14.784Z,14.43
2023-05-25T05:48:17.030Z,13.52
2023-05-25T05:49:19.258Z,7.13
2023-05-25T05:50:21.987Z,10.95
2023-05-25T05:51:24.134Z,12.38
2023-05-25T05:52:26.506Z,9.85
2023-05-25T05:53:28.682Z,10.65
2023-05-25T05:54:31.162Z,7.03
2023-05-25T05:55:33.570Z,7.95
2023-05-25T05:56:36.002Z,9.40
2023-05-25T05:57:38.295Z,6.88
2023-05-25T05:58:40.863Z,10.55
2023-05-25T05:59:43.407Z,9.07
2023-05-25T06:00:45.674Z,14.77
2023-05-25T06:01:49.591Z,10.30
2023-05-25T06:02:52.187Z,8.77
2023-05-25T06:03:56.053Z,13.60
2023-05-25T06:04:58.309Z,7.32
2023-05-25T06:06:00.731Z,8.68
2023-05-25T06:07:03.012Z,8.63
2023-05-25T06:08:06.221Z,15.48
2023-05-25T06:09:09.579Z,8.15
2023-05-25T06:10:12.630Z,8.48
2023-05-25T06:11:14.841Z,11.20
2023-05-25T06:12:17.232Z,9.70
2023-05-25T06:13:19.678Z,9.68
2023-05-25T06:14:21.870Z,7.20
2023-05-25T06:15:24.326Z,10.32
2023-05-25T06:16:26.932Z,8.38
2023-05-25T06:17:30.970Z,11.02
2023-05-25T06:18:33.279Z,10.32
2023-05-25T06:19:35.490Z,8.75
2023-05-25T06:20:37.951Z,7.30
2023-05-25T06:21:40.618Z,13.60
2023-05-25T06:22:43.254Z,13.95
2023-05-25T06:23:45.754Z,13.32
2023-05-25T06:24:50.949Z,15.48
2023-05-25T06:25:54.376Z,10.80
2023-05-25T06:26:56.571Z,9.52
2023-05-25T06:27:58.809Z,6.70
2023-05-25T06:29:01.082Z,8.32
2023-05-25T06:30:03.772Z,9.50
2023-05-25T06:31:06.269Z,8.73
2023-05-25T06:32:10.925Z,11.73
2023-05-25T06:33:14.680Z,8.55
2023-05-25T06:34:16.940Z,11.38
2023-05-25T06:35:21.921Z,9.68
2023-05-25T06:36:24.060Z,11.43
2023-05-25T06:37:27.127Z,6.22
2023-05-25T06:38:30.225Z,9.00
2023-05-25T06:39:32.360Z,9.20
2023-05-25T06:40:34.612Z,13.57
2023-05-25T06:41:39.365Z,10.45
2023-05-25T06:42:42.251Z,9.25
2023-05-25T06:43:44.453Z,15.60
2023-05-25T06:44:46.571Z,7.45
2023-05-25T06:45:49.943Z,12.75
2023-05-25T06:46:52.561Z,8.52
2023-05-25T06:47:54.941Z,7.70
2023-05-25T06:48:59.315Z,7.85
2023-05-25T06:50:01.832Z,9.15
2023-05-25T06:51:04.805Z,7.85
2023-05-25T06:52:07.419Z,7.63
2023-05-25T06:53:11.333Z,8.63
2023-05-25T06:54:15.069Z,7.18
2023-05-25T06:55:17.456Z,11.48
2023-05-25T06:56:20.040Z,10.45
2023-05-25T06:57:24.869Z,8.43
2023-05-25T06:58:27.459Z,6.47
2023-05-25T06:59:29.729Z,6.13
2023-05-25T07:00:32.044Z,10.90
2023-05-25T07:01:34.369Z,10.40
2023-05-25T07:02:36.693Z,6.78
2023-05-25T07:03:39.022Z,7.10
2023-05-25T07:04:43.046Z,11.80
2023-05-25T07:05:45.538Z,8.02
2023-05-25T07:06:48.440Z,7.07
2023-05-25T07:07:50.661Z,6.97
2023-05-25T07:08:53.034Z,11.52
2023-05-25T07:09:56.507Z,6.63
2023-05-25T07:10:58.760Z,6.97
2023-05-25T07:12:01.263Z,11.25
2023-05-25T07:13:03.474Z,6.85
2023-05-25T07:14:06.018Z,5.00
2023-05-25T07:15:09.792Z,8.63
2023-05-25T07:16:12.292Z,8.65
2023-05-25T07:17:14.610Z,8.43
2023-05-25T07:18:16.787Z,6.88
2023-05-25T07:19:18.945Z,7.32
2023-05-25T07:20:22.829Z,5.13
2023-05-25T07:21:25.181Z,6.47
2023-05-25T07:22:29.893Z,9.23
2023-05-25T07:23:32.126Z,14.77
2023-05-25T07:24:34.282Z,8.00
2023-05-25T07:25:37.686Z,13.23
2023-05-25T07:26:40.565Z,5.13
2023-05-25T07:27:42.910Z,4.78
2023-05-25T07:28:45.663Z,8.02
2023-05-25T07:29:47.918Z,14.73
2023-05-25T07:30:50.158Z,7.75
2023-05-25T07:31:52.442Z,8.07
2023-05-25T07:32:54.839Z,9.73
2023-05-25T07:33:57.071Z,11.90
2023-05-25T07:34:59.268Z,15.32
2023-05-25T07:36:02.926Z,10.93
2023-05-25T07:37:05.335Z,12.68
2023-05-25T07:38:07.540Z,8.70
2023-05-25T07:39:11.349Z,8.15
2023-05-25T07:40:13.737Z,9.93
2023-05-25T07:41:16.013Z,8.07
2023-05-25T07:42:21.804Z,9.55
2023-05-25T07:43:24.068Z,9.02
2023-05-25T07:44:26.215Z,9.77
2023-05-25T07:45:28.426Z,11.00
2023-05-25T07:46:30.821Z,7.65
2023-05-25T07:47:33.081Z,7.28
2023-05-25T07:48:35.291Z,18.85
2023-05-25T07:49:37.449Z,5.47
2023-05-25T07:50:39.650Z,7.18
2023-05-25T07:51:43.559Z,8.73
2023-05-25T07:52:46.374Z,11.50
2023-05-25T07:53:48.551Z,11.15
2023-05-25T07:54:50.780Z,7.68
2023-05-25T07:55:53.085Z,5.35
2023-05-25T07:56:55.660Z,8.13
2023-05-25T07:57:57.882Z,9.45
2023-05-25T07:59:01.153Z,9.40
2023-05-25T08:00:06.257Z,5.57
2023-05-25T08:01:08.468Z,11.18
2023-05-25T08:02:10.808Z,6.80
2023-05-25T08:03:13.803Z,7.80
2023-05-25T08:04:16.306Z,9.45
2023-05-25T08:05:18.978Z,10.05
2023-05-25T08:06:21.347Z,8.95
2023-05-25T08:07:25.645Z,5.80
2023-05-25T08:08:27.855Z,10.68
2023-05-25T08:09:30.032Z,5.78
2023-05-25T08:10:32.539Z,6.55
2023-05-25T08:11:34.944Z,6.65
2023-05-25T08:12:47.699Z,10.07
2023-05-25T08:13:51.963Z,9.48
2023-05-25T08:14:54.414Z,9.70
2023-05-25T08:15:56.601Z,5.05
2023-05-25T08:16:58.836Z,10.10
2023-05-25T08:18:01.473Z,9.80
2023-05-25T08:19:03.875Z,12.15
2023-05-25T08:20:08.881Z,7.35
2023-05-25T08:21:11.087Z,7.78
2023-05-25T08:22:13.362Z,10.73
2023-05-25T08:23:18.071Z,13.45
2023-05-25T08:24:20.269Z,7.95
2023-05-25T08:25:22.523Z,7.60
2023-05-25T08:26:41.342Z,11.75
2023-05-25T08:27:47.562Z,6.18
2023-05-25T08:28:49.866Z,8.05
2023-05-25T08:29:52.361Z,7.57
2023-05-25T08:30:55.217Z,14.27
2023-05-25T08:31:57.461Z,8.25
2023-05-25T08:32:59.689Z,6.00
2023-05-25T08:34:02.037Z,3.72
2023-05-25T08:35:04.778Z,5.43
2023-05-25T08:36:09.297Z,8.98
2023-05-25T08:37:11.567Z,6.57
2023-05-25T08:38:13.807Z,6.72
2023-05-25T08:39:17.492Z,11.07
2023-05-25T08:40:23.033Z,13.18
2023-05-25T08:41:25.958Z,9.80
2023-05-25T08:42:28.544Z,7.18
2023-05-25T08:43:30.896Z,8.25
2023-05-25T08:44:33.438Z,12.88
2023-05-25T08:45:38.473Z,9.38
2023-05-25T08:46:43.079Z,5.88
2023-05-25T08:47:48.802Z,6.63
2023-05-25T08:48:54.501Z,5.70
2023-05-25T08:49:57.638Z,9.00
2023-05-25T08:51:02.267Z,5.80
2023-05-25T08:52:06.886Z,11.15
2023-05-25T08:53:11.984Z,6.25
2023-05-25T08:54:16.337Z,6.10
2023-05-25T08:55:23.854Z,8.38
2023-05-25T08:56:29.264Z,3.90
2023-05-25T08:57:37.077Z,10.77
2023-05-25T08:58:45.965Z,6.88
2023-05-25T08:59:53.198Z,5.55
2023-05-25T09:00:58.643Z,3.90
2023-05-25T09:02:12.284Z,8.73
2023-05-25T09:03:20.098Z,7.68
2023-05-25T09:04:23.390Z,7.22
2023-05-25T09:05:25.976Z,4.78
2023-05-25T09:06:28.541Z,4.90
2023-05-25T09:07:31.117Z,4.93
2023-05-25T09:08:33.392Z,5.15
2023-05-25T09:09:37.184Z,7.38
2023-05-25T09:10:41.154Z,7.00
2023-05-25T09:11:45.725Z,5.65
2023-05-25T09:12:49.089Z,4.80
2023-05-25T09:13:51.377Z,8.32
2023-05-25T09:14:54.189Z,8.48
2023-05-25T09:15:56.991Z,9.75
2023-05-25T09:16:59.227Z,7.05
2023-05-25T09:18:01.422Z,6.75
2023-05-25T09:19:03.751Z,5.93
2023-05-25T09:20:06.995Z,8.27
2023-05-25T09:21:09.209Z,5.60
2023-05-25T09:22:15.722Z,6.68
2023-05-25T09:23:19.435Z,5.68
2023-05-25T09:24:22.528Z,4.55
2023-05-25T09:25:27.508Z,5.68
2023-05-25T09:26:31.222Z,5.30
2023-05-25T09:27:37.568Z,6.38
2023-05-25T09:28:46.732Z,5.88
2023-05-25T09:29:49.733Z,5.72
2023-05-25T09:30:52.081Z,4.88
2023-05-25T09:31:54.293Z,4.90
2023-05-25T09:32:56.500Z,3.88
2023-05-25T09:34:01.488Z,13.00
2023-05-25T09:35:11.933Z,6.88
2023-05-25T09:36:18.142Z,6.18
2023-05-25T09:37:20.941Z,5.85
2023-05-25T09:38:23.944Z,4.32
2023-05-25T09:39:27.215Z,3.80
2023-05-25T09:40:30.893Z,7.22
2023-05-25T09:41:34.518Z,5.97
2023-05-25T09:42:37.109Z,4.03
2023-05-25T09:43:46.662Z,8.98
2023-05-25T09:44:58.954Z,9.18
2023-05-25T09:46:04.447Z,5.97
2023-05-25T09:47:07.235Z,7.22
2023-05-25T09:48:09.568Z,6.93
2023-05-25T09:49:12.213Z,10.07
2023-05-25T09:50:15.116Z,9.30
2023-05-25T09:51:17.552Z,5.80
2023-05-25T09:52:20.075Z,7.05
2023-05-25T09:53:22.873Z,4.10
2023-05-25T09:54:27.002Z,6.40
2023-05-25T09:55:44.044Z,8.18
2023-05-25T09:56:54.253Z,8.32
2023-05-25T09:57:57.144Z,5.07
2023-05-25T09:58:59.764Z,6.85
2023-05-25T10:00:05.257Z,7.50
2023-05-25T10:01:07.582Z,11.27
2023-05-25T10:02:09.884Z,8.40
2023-05-25T10:03:15.316Z,7.65
2023-05-25T10:04:17.727Z,4.18
2023-05-25T10:05:20.207Z,6.72
2023-05-25T10:06:23.178Z,7.63
2023-05-25T10:07:27.139Z,3.75
2023-05-25T10:08:29.760Z,4.72
2023-05-25T10:09:34.390Z,7.00
2023-05-25T10:10:37.451Z,7.32
2023-05-25T10:11:42.876Z,13.05
2023-05-25T10:12:49.989Z,7.65
2023-05-25T10:13:54.584Z,8.45
2023-05-25T10:14:59.841Z,10.35
2023-05-25T10:16:04.450Z,5.90
2023-05-25T10:17:08.387Z,12.00
2023-05-25T10:18:13.546Z,4.38
2023-05-25T10:19:22.040Z,7.47
2023-05-25T10:20:28.444Z,8.20
2023-05-25T10:21:33.338Z,10.70
2023-05-25T10:22:40.664Z,5.28
2023-05-25T10:23:47.405Z,7.22
2023-05-25T10:24:56.290Z,12.02
2023-05-25T10:26:00.793Z,8.60
2023-05-25T10:27:11.169Z,10.07
2023-05-25T10:28:29.768Z,10.05
2023-05-25T10:29:34.042Z,10.15
2023-05-25T10:30:37.122Z,8.60
2023-05-25T10:31:39.870Z,8.07
2023-05-25T10:32:44.349Z,8.82
2023-05-25T10:33:50.572Z,8.30
2023-05-25T10:34:56.692Z,5.47
2023-05-25T10:36:09.016Z,9.57
2023-05-25T10:37:14.421Z,6.82
2023-05-25T10:38:17.602Z,6.55
2023-05-25T10:39:21.540Z,9.88
2023-05-25T10:40:24.411Z,10.80
2023-05-25T10:41:26.699Z,6.47
2023-05-25T10:42:29.900Z,8.32
2023-05-25T10:43:33.948Z,6.50
2023-05-25T10:44:36.384Z,9.07
2023-05-25T10:45:38.627Z,4.65
2023-05-25T10:46:41.416Z,7.78
2023-05-25T10:47:46.302Z,8.43
2023-05-25T10:48:51.937Z,5.90
2023-05-25T10:49:56.081Z,29.25
2023-05-25T10:50:58.498Z,16.33
2023-05-25T10:52:01.399Z,9.13
2023-05-25T10:53:06.111Z,8.25
2023-05-25T10:54:08.369Z,15.52
2023-05-25T10:55:11.875Z,7.97
2023-05-25T10:56:14.377Z,10.18
2023-05-25T10:57:22.718Z,6.43
2023-05-25T10:58:28.416Z,9.07
2023-05-25T10:59:32.015Z,12.07
2023-05-25T11:00:34.300Z,7.72
2023-05-25T11:01:50.901Z,8.55
2023-05-25T11:02:55.483Z,6.28
2023-05-25T11:04:14.936Z,8.35
2023-05-25T11:05:34.827Z,8.38
2023-05-25T11:07:14.443Z,7.18
2023-05-25T11:08:17.831Z,40.63
2023-05-25T11:09:26.969Z,6.50
2023-05-25T11:10:59.229Z,7.25
2023-05-25T11:12:03.722Z,11.15
2023-05-25T11:13:24.457Z,6.65
2023-05-25T11:14:32.558Z,7.47
2023-05-25T11:15:36.093Z,7.10
2023-05-25T11:16:40.407Z,6.68
2023-05-25T11:17:48.210Z,5.07
2023-05-25T11:18:55.051Z,7.75
2023-05-25T11:20:02.370Z,7.28
2023-05-25T11:21:14.883Z,9.20
2023-05-25T11:22:19.269Z,4.20
2023-05-25T11:23:25.103Z,10.60
2023-05-25T11:24:31.203Z,8.45
2023-05-25T11:25:38.482Z,8.38
2023-05-25T11:26:54.808Z,6.75
2023-05-25T11:28:04.447Z,7.00
2023-05-25T11:29:14.590Z,6.63
2023-05-25T11:30:18.565Z,7.43
2023-05-25T11:31:29.216Z,7.68
2023-05-25T11:32:31.553Z,7.70
2023-05-25T11:33:33.870Z,12.32
2023-05-25T11:34:36.390Z,4.25
2023-05-25T11:35:39.019Z,7.75
2023-05-25T11:36:43.041Z,7.43
2023-05-25T11:37:50.970Z,7.40
2023-05-25T11:39:04.923Z,9.45
2023-05-25T11:40:13.548Z,6.77
2023-05-25T11:41:18.919Z,10.05
2023-05-25T11:42:22.096Z,5.05
2023-05-25T11:43:26.127Z,14.68
2023-05-25T11:44:30.143Z,6.30
2023-05-25T11:45:37.410Z,4.65
2023-05-25T11:46:43.737Z,9.70
2023-05-25T11:47:46.163Z,4.13
2023-05-25T11:48:54.275Z,7.70
2023-05-25T11:49:56.697Z,8.80
2023-05-25T11:51:08.309Z,5.47
2023-05-25T11:52:10.849Z,8.25
2023-05-25T11:53:13.718Z,8.50
2023-05-25T11:54:25.362Z,6.20
2023-05-25T11:55:27.745Z,6.65
2023-05-25T11:56:35.982Z,9.50
2023-05-25T11:57:40.323Z,7.35
2023-05-25T11:58:44.706Z,8.70
2023-05-25T11:59:50.911Z,10.95
2023-05-25T12:00:53.189Z,7.75
2023-05-25T12:02:01.195Z,6.40
2023-05-25T12:03:03.516Z,7.68
2023-05-25T12:04:10.113Z,9.65
2023-05-25T12:05:12.564Z,7.57
2023-05-25T12:06:26.541Z,8.02
2023-05-25T12:07:30.080Z,5.65
2023-05-25T12:08:33.679Z,10.35
2023-05-25T12:09:36.982Z,7.40
2023-05-25T12:10:51.330Z,8.05
2023-05-25T12:11:54.180Z,5.90
2023-05-25T12:12:58.557Z,10.75
2023-05-25T12:14:03.616Z,7.75
2023-05-25T12:15:07.751Z,9.00
2023-05-25T12:16:10.194Z,7.85
2023-05-25T12:17:14.209Z,9.18
2023-05-25T12:18:16.809Z,6.50
2023-05-25T12:19:19.488Z,10.60
2023-05-25T12:20:22.278Z,32.17
2023-05-25T12:21:24.955Z,4.68
2023-05-25T12:22:27.867Z,6.63
2023-05-25T12:23:30.101Z,6.95
2023-05-25T12:24:32.512Z,54.72
2023-05-25T12:25:46.622Z,70.47
2023-05-25T12:27:02.527Z,55.13
2023-05-25T12:28:11.531Z,98.18
2023-05-25T12:29:13.781Z,50.10
2023-05-25T12:30:16.160Z,8.18
2023-05-25T12:31:23.250Z,12.20
2023-05-25T12:32:27.313Z,7.78
2023-05-25T12:33:29.599Z,6.65
2023-05-25T12:34:32.198Z,8.65
2023-05-25T12:35:45.740Z,5.57
2023-05-25T12:36:49.987Z,6.28
2023-05-25T12:38:10.115Z,8.45
2023-05-25T12:39:13.550Z,32.58
2023-05-25T12:40:20.896Z,52.85
2023-05-25T12:41:23.192Z,6.35
2023-05-25T12:42:33.665Z,6.13
2023-05-25T12:43:39.559Z,11.15
2023-05-25T12:44:42.738Z,10.80
2023-05-25T12:45:45.181Z,11.93
2023-05-25T12:46:47.706Z,7.00
2023-05-25T12:47:51.712Z,8.13
2023-05-25T12:48:54.576Z,4.68
2023-05-25T12:50:13.914Z,6.68
2023-05-25T12:51:18.610Z,5.75
2023-05-25T12:52:34.039Z,6.28
2023-05-25T12:53:47.415Z,8.75
2023-05-25T12:54:50.230Z,8.25
2023-05-25T12:56:01.744Z,9.43
2023-05-25T12:57:07.980Z,8.65
2023-05-25T12:58:27.275Z,8.60
2023-05-25T12:59:31.822Z,6.65
2023-05-25T13:00:36.737Z,6.85
2023-05-25T13:01:40.716Z,6.85
2023-05-25T13:02:44.046Z,4.68
2023-05-25T13:03:47.681Z,12.43
2023-05-25T13:04:49.940Z,6.53
2023-05-25T13:05:59.992Z,6.72
2023-05-25T13:07:02.985Z,57.00
2023-05-25T13:08:06.244Z,10.38
2023-05-25T13:09:09.249Z,7.20
2023-05-25T13:10:12.976Z,7.35
2023-05-25T13:11:15.405Z,7.75
2023-05-25T13:12:18.095Z,6.72
2023-05-25T13:13:20.442Z,8.20
2023-05-25T13:14:23.346Z,6.88
2023-05-25T13:15:28.761Z,8.85
2023-05-25T13:16:32.654Z,6.82
2023-05-25T13:17:35.835Z,5.05
2023-05-25T13:18:38.414Z,6.20
2023-05-25T13:19:42.169Z,8.32
2023-05-25T13:20:47.328Z,11.25
2023-05-25T13:21:52.149Z,9.75
2023-05-25T13:22:58.164Z,5.85
2023-05-25T13:24:00.474Z,8.60
2023-05-25T13:25:02.934Z,8.55
2023-05-25T13:26:05.146Z,13.18
2023-05-25T13:27:07.328Z,6.85
2023-05-25T13:28:09.828Z,12.05
2023-05-25T13:29:12.244Z,13.93
2023-05-25T13:30:15.361Z,8.27
2023-05-25T13:31:17.617Z,7.95
2023-05-25T13:32:20.668Z,7.13
2023-05-25T13:33:22.995Z,5.38
2023-05-25T13:34:25.265Z,12.07
2023-05-25T13:35:45.687Z,18.98
2023-05-25T13:36:48.780Z,13.88
2023-05-25T13:37:51.342Z,12.85
2023-05-25T13:38:54.025Z,50.33
2023-05-25T13:39:56.349Z,10.32
2023-05-25T13:40:58.645Z,10.43
2023-05-25T13:42:01.014Z,65.60
2023-05-25T13:43:03.333Z,12.68
2023-05-25T13:44:05.574Z,10.52
2023-05-25T13:45:09.021Z,19.10
2023-05-25T13:46:22.006Z,10.65
2023-05-25T13:47:33.863Z,9.93
2023-05-25T13:48:36.246Z,14.02
2023-05-25T13:49:38.419Z,10.05
2023-05-25T13:50:42.593Z,14.40
2023-05-25T13:51:44.932Z,11.60
2023-05-25T13:52:47.168Z,10.07
2023-05-25T13:53:49.334Z,10.55
2023-05-25T13:54:51.484Z,7.68
2023-05-25T13:55:53.757Z,11.10
2023-05-25T13:56:58.169Z,13.70
2023-05-25T13:58:00.463Z,10.75
2023-05-25T13:59:04.572Z,13.00